Terminal Aerodrome Forecast
Issued by NWS

Home | Current Version | Previous Version | Text Only | Print | Product List | Glossary On
Versions: 1 2 3 4 5 6 7 8 9 10 11 12 13
000
FTUS41 KLWX 101700
TAFMTN
TAF
KMTN 101734Z 1018/1118 08006KT P6SM VCTS BKN050CB BKN130
      TEMPO 1018/1019 VRB15KT 3SM TSRA OVC030CB
     FM102300 13004KT 6SM -TSRA BKN050CB BKN130
     FM110300 VRB03KT P6SM VCTS BKN050CB BKN130
     FM110600 VRB03KT P6SM SCT050
     FM111500 07006KT P6SM SCT050=

USA.gov is the U.S. government's official web portal to all federal, state and local government web resources and services.